Time;durP1;ratioP1;P1;durP2;ratioP2;P2;SDS_P1;SDS_P2;PMS_P1;PMS_P2;Temp;Humidity;BMP_temperature;BMP_pressure;BME280_temperature;BME280_humidity;BME280_pressure;Samples;Min_cycle;Max_cycle;Signal;HPM_P1;HPM_P2
2021/07/07 00:00:10;;;;;;;6.33;5.83;;;;;;;26.85;61.17;100977.88;1761924;80;20947;-47
2021/07/07 00:02:37;;;;;;;7.05;5.97;;;;;;;26.85;61.17;100977.88;1761588;80;20971;-49
2021/07/07 00:05:07;;;;;;;5.53;5.03;;;;;;;26.82;61.07;100970.12;1754728;80;21522;-46
2021/07/07 00:07:34;;;;;;;6.10;5.50;;;;;;;26.83;61.08;100981.14;1767751;80;21018;-50
2021/07/07 00:10:02;;;;;;;8.45;4.83;;;;;;;26.80;61.33;100984.09;1763280;80;20979;-48
2021/07/07 00:12:29;;;;;;;5.70;4.70;;;;;;;26.75;61.47;100988.96;1763258;81;20979;-47
2021/07/07 00:14:58;;;;;;;5.25;4.85;;;;;;;26.74;61.58;100987.77;1757686;80;20975;-48
2021/07/07 00:17:25;;;;;;;6.25;5.30;;;;;;;26.72;61.38;100986.57;1755822;80;20989;-47
2021/07/07 00:19:53;;;;;;;5.53;5.00;;;;;;;26.71;61.37;100988.02;1759362;80;20954;-49
2021/07/07 00:22:20;;;;;;;5.60;5.10;;;;;;;26.66;61.28;100992.40;1764568;80;20990;-47
2021/07/07 00:24:46;;;;;;;5.53;5.10;;;;;;;26.63;61.39;100991.31;1755757;81;21023;-51
2021/07/07 00:27:13;;;;;;;6.35;4.97;;;;;;;26.61;61.56;100989.26;1757931;80;20997;-49
2021/07/07 00:29:40;;;;;;;5.80;5.25;;;;;;;26.58;61.55;100986.87;1751571;80;21458;-47
2021/07/07 00:32:08;;;;;;;8.33;5.50;;;;;;;26.58;61.55;100986.87;1756121;80;20986;-51
2021/07/07 00:34:34;;;;;;;5.95;5.45;;;;;;;26.54;61.57;100985.44;1753169;80;21026;-46
2021/07/07 00:37:02;;;;;;;8.15;5.83;;;;;;;26.53;61.49;100989.06;1775715;80;21518;-49
2021/07/07 00:39:28;;;;;;;6.37;5.45;;;;;;;26.51;61.55;100993.69;1776354;80;20971;-49
2021/07/07 00:41:55;;;;;;;6.47;5.08;;;;;;;26.50;61.53;100992.01;1762055;80;21486;-50
2021/07/07 00:44:23;;;;;;;5.83;5.25;;;;;;;26.48;61.74;100991.29;1757679;80;21007;-49
2021/07/07 00:46:49;;;;;;;6.20;5.70;;;;;;;26.45;61.59;100988.86;1752343;80;20950;-46
2021/07/07 00:49:16;;;;;;;6.95;5.72;;;;;;;26.45;61.74;100992.87;1754364;80;20983;-47
2021/07/07 00:51:43;;;;;;;6.20;5.40;;;;;;;26.44;61.84;100997.34;1756367;80;21462;-50
2021/07/07 00:54:10;;;;;;;5.95;5.35;;;;;;;26.45;61.83;100995.53;1757591;80;20986;-50
2021/07/07 00:56:37;;;;;;;7.03;5.72;;;;;;;26.44;61.90;100995.19;1756503;80;21530;-50
2021/07/07 00:59:05;;;;;;;6.83;5.87;;;;;;;26.42;61.96;101001.15;1748531;80;21443;-46
2021/07/07 01:01:32;;;;;;;6.87;6.17;;;;;;;26.43;62.00;101001.48;1758246;81;20997;-50
2021/07/07 01:03:58;;;;;;;6.28;5.78;;;;;;;26.43;62.01;100995.67;1771208;80;21078;-52
2021/07/07 01:06:25;;;;;;;7.30;5.67;;;;;;;26.45;61.72;100996.87;1762358;80;20979;-48
2021/07/07 01:08:52;;;;;;;6.20;5.70;;;;;;;26.42;61.67;100996.63;1748048;80;20983;-50
2021/07/07 01:11:19;;;;;;;8.53;5.83;;;;;;;26.39;61.67;101004.06;1749919;81;20974;-47
2021/07/07 01:13:45;;;;;;;7.55;6.47;;;;;;;26.37;61.76;101008.20;1761102;81;21542;-47
2021/07/07 01:16:12;;;;;;;6.90;6.28;;;;;;;26.36;61.89;101007.82;1756343;80;21032;-49
2021/07/07 01:18:40;;;;;;;6.20;5.65;;;;;;;26.38;61.93;101011.69;1753833;80;20987;-46
2021/07/07 01:21:07;;;;;;;8.85;6.37;;;;;;;26.38;61.96;101011.20;1769481;80;20978;-50
2021/07/07 01:23:33;;;;;;;7.03;6.22;;;;;;;26.36;61.99;101017.64;1756037;80;20970;-49
2021/07/07 01:26:01;;;;;;;5.80;5.40;;;;;;;26.41;61.95;101016.78;1759896;80;21025;-48
2021/07/07 01:28:28;;;;;;;6.80;6.08;;;;;;;26.42;61.69;101015.82;1760831;80;20967;-50
2021/07/07 01:30:55;;;;;;;6.62;6.03;;;;;;;26.41;61.63;101022.12;1765801;80;20943;-46
2021/07/07 01:33:22;;;;;;;8.08;5.92;;;;;;;26.40;61.68;101018.59;1774629;80;21505;-49
2021/07/07 01:35:49;;;;;;;8.53;6.50;;;;;;;26.39;61.82;101028.07;1759840;80;20972;-50
2021/07/07 01:38:15;;;;;;;7.35;6.10;;;;;;;26.40;61.78;101025.74;1765742;80;20955;-47
2021/07/07 01:40:43;;;;;;;7.75;5.85;;;;;;;26.38;61.77;101030.36;1763163;80;20987;-49
2021/07/07 01:43:11;;;;;;;10.10;5.50;;;;;;;26.37;61.81;101032.69;1749519;80;21475;-46
2021/07/07 01:45:38;;;;;;;6.30;5.67;;;;;;;26.35;61.77;101033.30;1702126;83;20983;-49
2021/07/07 01:48:05;;;;;;;5.87;5.12;;;;;;;26.34;61.72;101036.93;1697095;83;21464;-46
2021/07/07 01:50:31;;;;;;;6.30;5.80;;;;;;;26.31;61.80;101038.05;1743992;80;20959;-47
2021/07/07 01:52:58;;;;;;;8.13;5.20;;;;;;;26.30;61.93;101046.16;1756679;80;20982;-47
2021/07/07 01:55:25;;;;;;;7.12;5.08;;;;;;;26.27;62.01;101047.29;1757973;80;21470;-47
2021/07/07 01:57:54;;;;;;;5.85;5.10;;;;;;;26.25;61.99;101043.05;1759104;80;21030;-49
2021/07/07 02:00:24;;;;;;;8.43;5.20;;;;;;;26.24;61.96;101044.00;1764950;80;21495;-46
2021/07/07 02:02:52;;;;;;;5.90;5.30;;;;;;;26.23;61.88;101043.66;1753981;80;20978;-46
2021/07/07 02:05:23;;;;;;;6.20;5.08;;;;;;;26.21;61.82;101049.61;1759730;80;21010;-49
2021/07/07 02:07:50;;;;;;;5.15;4.65;;;;;;;26.18;61.92;101057.84;1677140;84;21057;-46
2021/07/07 02:10:17;;;;;;;6.85;4.65;;;;;;;26.17;61.91;101060.17;1664525;85;21078;-46
2021/07/07 02:12:44;;;;;;;5.20;4.70;;;;;;;26.14;61.98;101051.06;1667606;85;21071;-49
2021/07/07 02:15:20;;;;;;;5.08;4.53;;;;;;;26.13;61.98;101053.39;1699748;83;21507;-46
2021/07/07 02:17:47;;;;;;;4.92;4.50;;;;;;;26.09;62.03;101058.61;1672658;84;21503;-46
2021/07/07 02:20:15;;;;;;;5.53;5.05;;;;;;;26.10;62.14;101056.29;1668153;85;21076;-48
2021/07/07 02:22:42;;;;;;;5.50;5.00;;;;;;;26.11;61.97;101054.00;1668250;84;21006;-50
2021/07/07 02:25:12;;;;;;;4.85;4.45;;;;;;;26.12;62.02;101062.34;1667575;85;21569;-48
2021/07/07 02:27:39;;;;;;;5.17;4.78;;;;;;;26.10;61.88;101069.15;1662839;85;21482;-52
2021/07/07 02:30:09;;;;;;;6.45;5.30;;;;;;;26.08;61.98;101062.23;1656551;84;21023;-47
2021/07/07 02:32:35;;;;;;;4.92;4.53;;;;;;;26.08;61.88;101062.23;1665671;84;20994;-46
2021/07/07 02:35:06;;;;;;;5.17;4.85;;;;;;;26.07;61.73;101068.53;1673537;84;21541;-50
2021/07/07 02:37:32;;;;;;;4.83;4.20;;;;;;;26.05;61.75;101067.80;1665267;85;20984;-50
2021/07/07 02:40:00;;;;;;;7.37;4.97;;;;;;;26.02;61.68;101074.23;1675930;84;21037;-50
2021/07/07 02:42:27;;;;;;;6.00;5.47;;;;;;;26.01;61.70;101079.69;1679229;84;21108;-49
2021/07/07 02:44:53;;;;;;;6.10;5.50;;;;;;;25.97;61.92;101080.41;1676531;84;21073;-46
2021/07/07 02:47:20;;;;;;;6.10;4.80;;;;;;;25.97;61.90;101075.55;1682701;84;21037;-50
2021/07/07 02:49:47;;;;;;;5.28;4.78;;;;;;;25.93;61.72;101074.95;1685916;84;20978;-49
2021/07/07 02:52:13;;;;;;;5.58;5.08;;;;;;;25.93;61.72;101074.95;1685854;84;21514;-51
2021/07/07 02:54:40;;;;;;;6.87;5.53;;;;;;;25.94;61.75;101081.14;1643494;86;21075;-49
2021/07/07 02:57:07;;;;;;;5.42;4.92;;;;;;;25.92;61.84;101087.09;1681684;84;21078;-47
2021/07/07 02:59:33;;;;;;;6.72;5.10;;;;;;;25.89;61.68;101083.31;1677779;84;21057;-46
2021/07/07 03:02:00;;;;;;;7.35;5.42;;;;;;;25.87;61.83;101087.92;1680704;84;21092;-47
2021/07/07 03:04:28;;;;;;;5.47;5.08;;;;;;;25.81;61.95;101092.80;1690856;83;21519;-48
2021/07/07 03:06:55;;;;;;;7.53;5.33;;;;;;;25.77;61.92;101094.01;1697433;84;21494;-46
2021/07/07 03:09:22;;;;;;;6.22;5.20;;;;;;;25.76;62.06;101100.80;1692293;84;20952;-48
2021/07/07 03:11:49;;;;;;;5.72;5.28;;;;;;;25.75;62.35;101095.09;1687597;83;21030;-51
2021/07/07 03:14:17;;;;;;;7.28;5.42;;;;;;;25.74;62.37;101099.56;1677465;84;20987;-51
2021/07/07 03:16:44;;;;;;;5.40;5.00;;;;;;;25.75;62.39;101105.28;1695414;84;21051;-49
2021/07/07 03:19:10;;;;;;;6.62;6.00;;;;;;;25.75;62.34;101105.28;1695252;84;21023;-47
2021/07/07 03:21:37;;;;;;;6.22;5.62;;;;;;;25.76;62.46;101105.63;1682624;84;21634;-50
2021/07/07 03:24:05;;;;;;;6.33;5.65;;;;;;;25.75;62.24;101109.28;1691024;84;20999;-46
2021/07/07 03:26:32;;;;;;;6.22;5.72;;;;;;;25.75;62.29;101111.95;1698909;83;21052;-47
2021/07/07 03:28:58;;;;;;;8.00;6.15;;;;;;;25.75;62.24;101122.61;1690818;84;21000;-49
2021/07/07 03:31:27;;;;;;;6.47;5.87;;;;;;;25.77;62.34;101126.00;1697074;84;21028;-50
2021/07/07 03:33:53;;;;;;;6.22;5.62;;;;;;;25.78;62.36;101119.68;1688230;84;20994;-49
2021/07/07 03:36:20;;;;;;;6.95;6.20;;;;;;;25.79;62.30;101119.20;1754477;80;21513;-47
2021/07/07 03:38:47;;;;;;;7.17;5.67;;;;;;;25.78;62.18;101127.67;1763543;80;20998;-47
2021/07/07 03:41:15;;;;;;;5.87;5.30;;;;;;;25.76;62.27;101122.95;1732720;80;20971;-51
2021/07/07 03:43:41;;;;;;;6.62;5.75;;;;;;;25.78;62.41;101133.01;1759216;80;21454;-47
2021/07/07 03:46:08;;;;;;;6.58;5.97;;;;;;;25.80;62.37;101136.40;1759735;80;20986;-49
2021/07/07 03:48:35;;;;;;;6.70;6.08;;;;;;;25.81;62.36;101138.11;1763814;80;20959;-46
2021/07/07 03:51:01;;;;;;;10.58;5.65;;;;;;;25.86;62.30;101142.23;1761610;80;20990;-52
2021/07/07 03:53:28;;;;;;;6.15;5.72;;;;;;;25.87;62.20;101141.25;1755251;80;21003;-49
2021/07/07 03:55:54;;;;;;;6.08;5.58;;;;;;;25.87;61.88;101138.58;1768582;80;21049;-46
2021/07/07 03:58:21;;;;;;;5.87;5.40;;;;;;;25.85;61.85;101150.70;1752972;80;21011;-49
2021/07/07 04:00:47;;;;;;;6.42;5.78;;;;;;;25.84;61.87;101151.19;1764705;80;20999;-50
2021/07/07 04:03:16;;;;;;;5.78;5.28;;;;;;;25.81;62.00;101159.44;1760245;80;20962;-47
2021/07/07 04:05:43;;;;;;;6.00;5.50;;;;;;;25.80;61.88;101162.23;1758815;81;20970;-49
2021/07/07 04:08:10;;;;;;;6.10;5.60;;;;;;;25.78;62.04;101169.00;1747271;81;20982;-46
2021/07/07 04:10:37;;;;;;;8.35;6.20;;;;;;;25.76;61.92;101173.60;1754722;80;21537;-46
2021/07/07 04:13:04;;;;;;;6.53;5.92;;;;;;;25.75;62.01;101173.25;1753977;80;21089;-46
2021/07/07 04:15:31;;;;;;;6.50;5.90;;;;;;;25.76;62.19;101172.78;1755341;80;21530;-46
2021/07/07 04:17:57;;;;;;;6.80;6.20;;;;;;;25.76;62.17;101173.60;1751266;80;20998;-49
2021/07/07 04:20:24;;;;;;;7.40;6.30;;;;;;;25.77;62.05;101176.65;1760604;80;21502;-47
2021/07/07 04:22:51;;;;;;;9.10;6.42;;;;;;;25.77;62.19;101175.80;1769483;80;20954;-46
2021/07/07 04:25:18;;;;;;;7.12;5.65;;;;;;;25.76;62.08;101176.78;1751828;80;20974;-49
2021/07/07 04:27:45;;;;;;;7.53;6.10;;;;;;;25.75;62.02;101178.59;1773273;80;20990;-45
2021/07/07 04:30:15;;;;;;;6.70;6.10;;;;;;;25.75;62.21;101181.25;1766075;80;20943;-46
2021/07/07 04:32:43;;;;;;;6.70;6.10;;;;;;;25.77;62.31;101184.64;1758087;80;21014;-46
2021/07/07 04:35:10;;;;;;;7.15;6.00;;;;;;;25.78;62.21;101181.50;1747042;80;21427;-50
2021/07/07 04:37:37;;;;;;;7.00;6.30;;;;;;;25.79;62.27;101186.70;1760179;80;21034;-50
2021/07/07 04:40:07;;;;;;;7.40;6.70;;;;;;;25.81;62.19;101191.44;1754478;80;20979;-50
2021/07/07 04:42:33;;;;;;;6.58;5.95;;;;;;;25.82;62.01;101190.95;1753123;80;20979;-49
2021/07/07 04:45:00;;;;;;;7.40;6.70;;;;;;;25.80;61.92;101199.05;1750207;80;20975;-45
2021/07/07 04:47:29;;;;;;;7.12;6.20;;;;;;;25.80;61.88;101201.72;1759083;80;21455;-50
2021/07/07 04:49:56;;;;;;;7.50;6.85;;;;;;;25.81;61.99;101206.09;1751475;80;20986;-50
2021/07/07 04:52:22;;;;;;;8.60;6.87;;;;;;;25.86;61.82;101208.89;1752080;80;20970;-51
2021/07/07 04:54:49;;;;;;;6.67;6.17;;;;;;;25.84;61.72;101205.02;1754591;80;21026;-48
2021/07/07 04:57:16;;;;;;;7.45;6.78;;;;;;;25.85;61.66;101202.70;1753533;80;21017;-46
2021/07/07 04:59:43;;;;;;;7.10;6.55;;;;;;;25.84;61.64;101201.84;1752800;81;21002;-50
2021/07/07 05:02:10;;;;;;;10.63;6.60;;;;;;;25.84;61.66;101208.50;1767134;80;20956;-52
2021/07/07 05:04:37;;;;;;;8.30;7.50;;;;;;;25.83;61.65;101208.16;1755469;80;20978;-49
2021/07/07 05:07:04;;;;;;;8.40;7.60;;;;;;;25.82;61.45;101216.28;1765498;80;20958;-46
2021/07/07 05:09:30;;;;;;;7.95;7.25;;;;;;;25.80;61.50;101216.37;1761788;80;20979;-48
2021/07/07 05:11:57;;;;;;;7.80;7.10;;;;;;;25.81;61.62;101226.09;1758933;80;21028;-49
2021/07/07 05:14:23;;;;;;;8.33;7.53;;;;;;;25.81;61.85;101234.09;1751376;80;20978;-47
2021/07/07 05:16:50;;;;;;;10.18;8.25;;;;;;;25.84;61.88;101229.84;1751108;80;20967;-46
2021/07/07 05:19:17;;;;;;;8.95;8.15;;;;;;;25.86;61.88;101230.22;1767560;80;20951;-46
2021/07/07 05:21:45;;;;;;;9.50;8.68;;;;;;;25.90;61.87;101233.01;1755112;80;20974;-52
2021/07/07 05:24:12;;;;;;;9.55;8.65;;;;;;;25.92;61.69;101229.73;1754976;80;21015;-46
2021/07/07 05:26:39;;;;;;;8.65;7.90;;;;;;;25.93;61.80;101236.75;1754459;81;20970;-47
2021/07/07 05:29:06;;;;;;;9.30;8.25;;;;;;;25.94;61.64;101237.13;1755075;81;20980;-52
2021/07/07 05:31:33;;;;;;;9.28;8.43;;;;;;;25.97;61.68;101247.54;1757183;80;21455;-50
2021/07/07 05:34:00;;;;;;;8.15;7.45;;;;;;;25.99;61.88;101249.63;1753709;81;21038;-47
2021/07/07 05:36:27;;;;;;;10.90;9.90;;;;;;;26.01;61.77;101251.19;1757658;80;21038;-49
2021/07/07 05:38:53;;;;;;;9.30;8.40;;;;;;;26.06;61.92;101252.17;1769068;80;20975;-47
2021/07/07 05:41:20;;;;;;;9.75;8.48;;;;;;;26.09;61.62;101257.31;1766864;80;20954;-47
2021/07/07 05:43:48;;;;;;;9.13;8.33;;;;;;;26.11;61.61;101260.70;1754817;80;21513;-50
2021/07/07 05:46:14;;;;;;;10.20;9.20;;;;;;;26.13;61.47;101257.44;1757066;80;21007;-47
2021/07/07 05:48:41;;;;;;;9.13;8.33;;;;;;;26.16;61.71;101261.17;1753088;81;21100;-50
2021/07/07 05:51:08;;;;;;;9.38;8.48;;;;;;;26.22;61.58;101270.03;1769495;80;21459;-48
2021/07/07 05:53:35;;;;;;;10.10;9.08;;;;;;;26.27;61.53;101267.86;1760425;80;20974;-46
2021/07/07 05:56:01;;;;;;;9.43;8.48;;;;;;;26.32;61.25;101271.00;1752991;80;21485;-47
2021/07/07 05:58:28;;;;;;;10.75;8.80;;;;;;;26.35;60.90;101276.11;1764171;80;21030;-47
2021/07/07 06:00:54;;;;;;;9.83;8.93;;;;;;;26.37;60.90;101275.50;1760149;80;21482;-52
2021/07/07 06:03:21;;;;;;;10.13;9.23;;;;;;;26.40;60.77;101284.58;1755422;80;20958;-47
2021/07/07 06:05:48;;;;;;;9.88;8.98;;;;;;;26.43;60.65;101281.68;1762673;80;21007;-50
2021/07/07 06:08:14;;;;;;;9.53;8.63;;;;;;;26.46;60.74;101288.13;1754972;80;20990;-47
2021/07/07 06:10:43;;;;;;;10.50;9.18;;;;;;;26.46;60.74;101288.13;1754329;80;20970;-52
2021/07/07 06:13:09;;;;;;;11.28;8.73;;;;;;;26.50;60.64;101289.58;1764546;80;20965;-47
2021/07/07 06:15:37;;;;;;;9.85;8.85;;;;;;;26.52;60.54;101294.30;1763668;80;21523;-49
2021/07/07 06:18:06;;;;;;;11.30;8.98;;;;;;;26.54;60.26;101292.36;1760364;80;20967;-48
2021/07/07 06:20:33;;;;;;;9.68;8.68;;;;;;;26.59;60.29;101295.50;1712898;82;21015;-45
2021/07/07 06:23:00;;;;;;;10.30;9.30;;;;;;;26.65;59.83;101299.01;1717434;82;21009;-51
2021/07/07 06:25:26;;;;;;;10.43;9.55;;;;;;;26.67;59.65;101298.40;1712198;82;21015;-51
2021/07/07 06:27:53;;;;;;;11.57;10.38;;;;;;;26.69;59.72;101309.80;1714679;82;21055;-49
2021/07/07 06:30:24;;;;;;;10.65;9.53;;;;;;;26.71;59.95;101310.53;1712590;82;20986;-48
2021/07/07 06:32:52;;;;;;;10.00;9.10;;;;;;;26.73;59.98;101315.80;1715314;82;21038;-48
2021/07/07 06:35:19;;;;;;;14.25;9.43;;;;;;;26.75;59.97;101312.02;1704895;83;21046;-50
2021/07/07 06:37:46;;;;;;;12.63;11.43;;;;;;;26.77;59.76;101317.25;1714547;82;21002;-48
2021/07/07 06:40:13;;;;;;;10.68;9.58;;;;;;;26.77;59.80;101315.41;1701920;83;21458;-50
2021/07/07 06:42:40;;;;;;;16.27;12.50;;;;;;;26.81;59.82;101320.86;1712616;83;20987;-47
2021/07/07 06:45:09;;;;;;;11.18;10.08;;;;;;;26.84;59.99;101319.77;1723186;83;20966;-50
2021/07/07 06:47:36;;;;;;;12.40;10.25;;;;;;;26.87;59.99;101327.08;1712571;82;21573;-49
2021/07/07 06:50:09;;;;;;;11.97;10.45;;;;;;;26.92;59.95;101326.20;1694403;83;21476;-49
2021/07/07 06:52:36;;;;;;;11.30;10.25;;;;;;;26.96;59.88;101326.31;1701664;83;21038;-48
2021/07/07 06:55:05;;;;;;;11.15;10.05;;;;;;;27.01;59.85;101326.80;1698696;83;21021;-51
2021/07/07 06:57:34;;;;;;;14.45;10.93;;;;;;;27.05;59.71;101330.92;1705476;83;21017;-51
2021/07/07 07:00:11;;;;;;;12.07;10.88;;;;;;;27.09;59.43;101327.03;1697536;82;20969;-52
2021/07/07 07:02:38;;;;;;;11.10;10.08;;;;;;;27.08;59.36;101332.50;1702795;82;21030;-49
2021/07/07 07:05:06;;;;;;;12.80;11.00;;;;;;;27.08;59.24;101330.66;1711986;82;20947;-47
2021/07/07 07:07:33;;;;;;;14.07;12.15;;;;;;;27.09;59.38;101336.86;1698769;83;20986;-48
2021/07/07 07:10:00;;;;;;;12.93;11.73;;;;;;;27.10;59.47;101336.72;1705432;83;20990;-46
2021/07/07 07:12:27;;;;;;;14.10;11.53;;;;;;;27.11;59.54;101337.10;1711815;82;21003;-50
2021/07/07 07:14:56;;;;;;;12.90;11.70;;;;;;;27.17;59.62;101337.93;1720688;83;20970;-48
2021/07/07 07:17:24;;;;;;;13.03;11.73;;;;;;;27.19;59.52;101337.32;1750013;80;20939;-48
2021/07/07 07:19:51;;;;;;;11.53;10.43;;;;;;;27.26;59.17;101339.87;1754125;80;20979;-45
2021/07/07 07:22:17;;;;;;;12.45;11.15;;;;;;;27.25;59.19;101348.84;1756614;80;21013;-49
2021/07/07 07:24:45;;;;;;;12.43;11.18;;;;;;;27.27;59.13;101346.89;1749422;80;20966;-48
2021/07/07 07:27:12;;;;;;;12.47;10.68;;;;;;;27.31;59.17;101348.33;1757217;80;20977;-50
2021/07/07 07:29:40;;;;;;;12.28;10.95;;;;;;;27.37;59.54;101353.20;1759806;80;21520;-48
2021/07/07 07:32:08;;;;;;;11.73;10.60;;;;;;;27.45;59.70;101351.73;1763771;80;20986;-51
2021/07/07 07:34:35;;;;;;;11.00;9.90;;;;;;;27.53;59.38;101352.81;1745735;80;20966;-49
2021/07/07 07:37:05;;;;;;;13.25;11.95;;;;;;;27.62;59.10;101354.70;1758018;80;20977;-48
2021/07/07 07:39:49;;;;;;;16.37;14.87;;;;;;;27.68;58.80;101358.67;1765309;80;20973;-50
2021/07/07 07:42:15;;;;;;;12.28;11.18;;;;;;;27.74;58.55;101363.54;1760065;80;21021;-48
2021/07/07 07:44:42;;;;;;;13.13;11.78;;;;;;;27.82;58.66;101353.05;1754689;80;21459;-50
2021/07/07 07:47:10;;;;;;;14.38;11.70;;;;;;;27.82;58.66;101353.05;1777942;80;20991;-48
2021/07/07 07:49:38;;;;;;;11.75;10.30;;;;;;;27.91;58.69;101362.95;1757727;80;21064;-49
2021/07/07 07:52:06;;;;;;;22.65;19.45;;;;;;;27.91;58.69;101362.95;1748133;80;21404;-52
2021/07/07 07:54:33;;;;;;;13.53;12.20;;;;;;;28.03;58.63;101363.27;1762019;80;21030;-47
2021/07/07 07:57:00;;;;;;;12.98;11.68;;;;;;;28.03;58.63;101363.27;1763528;80;20951;-50
2021/07/07 07:59:28;;;;;;;14.47;10.75;;;;;;;28.12;58.67;101363.84;1755416;81;21553;-48
2021/07/07 08:01:54;;;;;;;13.65;11.57;;;;;;;28.20;58.54;101369.38;1765640;80;20966;-51
2021/07/07 08:04:21;;;;;;;12.13;10.93;;;;;;;28.36;58.48;101372.95;1763097;80;21107;-48
2021/07/07 08:06:48;;;;;;;12.13;10.85;;;;;;;28.45;58.08;101371.66;1768224;80;21006;-50
2021/07/07 08:09:14;;;;;;;12.28;11.08;;;;;;;28.53;57.99;101375.84;1762514;80;21474;-48
2021/07/07 08:11:43;;;;;;;12.20;11.08;;;;;;;28.53;57.99;101375.84;1778487;80;20963;-50
2021/07/07 08:14:11;;;;;;;12.73;11.35;;;;;;;28.60;57.33;101378.39;1755481;80;20955;-52
2021/07/07 08:16:38;;;;;;;12.33;11.30;;;;;;;28.68;57.32;101375.89;1766823;80;20966;-50
2021/07/07 08:19:05;;;;;;;12.55;11.45;;;;;;;28.75;56.98;101386.89;1767001;80;21015;-48
2021/07/07 08:21:32;;;;;;;13.35;10.78;;;;;;;28.79;57.23;101378.45;1774575;80;20958;-50
2021/07/07 08:24:02;;;;;;;15.30;11.15;;;;;;;28.85;57.20;101381.11;1766963;80;20969;-52
2021/07/07 08:26:28;;;;;;;12.13;10.93;;;;;;;28.92;56.74;101389.80;1767184;80;21493;-47
2021/07/07 08:28:58;;;;;;;16.23;12.20;;;;;;;28.98;56.49;101390.59;1751065;80;21509;-51
2021/07/07 08:31:26;;;;;;;12.15;10.93;;;;;;;29.04;56.26;101393.20;1761851;80;20992;-47
2021/07/07 08:33:54;;;;;;;11.83;10.72;;;;;;;29.07;56.03;101392.09;1654320;85;21032;-51
2021/07/07 08:36:26;;;;;;;12.58;11.50;;;;;;;29.09;55.92;101392.80;1649550;87;21031;-52
2021/07/07 08:38:54;;;;;;;14.38;12.90;;;;;;;29.10;55.82;101395.34;1656197;85;21049;-46
2021/07/07 08:41:22;;;;;;;14.87;13.32;;;;;;;29.13;55.64;101396.91;1674460;85;21507;-48
2021/07/07 08:43:49;;;;;;;14.05;12.60;;;;;;;29.17;55.64;101401.03;1666511;85;21507;-47
2021/07/07 08:46:16;;;;;;;15.10;12.85;;;;;;;29.21;55.88;101405.14;1666291;84;21060;-48
2021/07/07 08:48:44;;;;;;;16.10;14.47;;;;;;;29.28;55.71;101415.68;1663156;85;20999;-47
2021/07/07 08:51:10;;;;;;;15.58;14.13;;;;;;;29.34;55.56;101416.47;1670850;85;21491;-51
2021/07/07 08:53:39;;;;;;;17.02;14.45;;;;;;;29.40;55.79;101413.23;1667044;85;20996;-50
2021/07/07 08:56:07;;;;;;;17.40;14.30;;;;;;;29.44;55.51;101420.02;1677517;85;21507;-51
2021/07/07 08:58:33;;;;;;;17.17;15.45;;;;;;;29.49;55.06;101425.83;1669588;84;21035;-50
2021/07/07 09:01:00;;;;;;;16.35;14.75;;;;;;;29.48;54.84;101428.14;1657461;84;21164;-50
2021/07/07 09:03:26;;;;;;;19.95;16.17;;;;;;;29.45;54.72;101423.89;1677193;84;21503;-52
2021/07/07 09:06:02;;;;;;;19.35;15.83;;;;;;;29.45;54.69;101421.73;1676426;84;21023;-50
2021/07/07 09:08:33;;;;;;;18.12;16.32;;;;;;;29.41;55.05;101422.95;1674286;85;21030;-48
2021/07/07 09:11:23;;;;;;;17.00;15.45;;;;;;;29.38;55.36;101418.74;1663259;84;21055;-53
2021/07/07 09:14:09;;;;;;;15.70;14.20;;;;;;;29.38;55.40;101427.27;1640041;86;21598;-50
2021/07/07 09:16:46;;;;;;;16.42;14.85;;;;;;;29.39;55.36;101435.66;1630267;86;21530;-49
2021/07/07 09:19:17;;;;;;;16.27;14.68;;;;;;;29.39;55.24;101431.15;1613619;87;21738;-47
2021/07/07 09:21:53;;;;;;;17.70;15.85;;;;;;;29.36;55.05;101434.13;1621951;87;21072;-50
2021/07/07 09:24:23;;;;;;;17.62;15.30;;;;;;;29.35;55.44;101436.91;1639620;85;21522;-47
2021/07/07 09:27:05;;;;;;;16.00;14.50;;;;;;;29.34;55.48;101432.55;1611255;87;21062;-48
2021/07/07 09:29:41;;;;;;;16.40;14.85;;;;;;;29.32;55.48;101427.82;1601780;87;21030;-48
2021/07/07 09:32:14;;;;;;;16.00;14.33;;;;;;;29.34;55.30;101431.21;1665031;84;21053;-49
2021/07/07 09:34:42;;;;;;;16.02;14.35;;;;;;;29.33;55.15;101429.50;1680818;84;21038;-47
2021/07/07 09:37:09;;;;;;;15.38;14.07;;;;;;;29.33;55.13;101428.16;1687462;84;21014;-46
2021/07/07 09:39:36;;;;;;;15.72;14.28;;;;;;;29.28;54.90;101439.81;1683278;84;21498;-50
2021/07/07 09:42:03;;;;;;;16.52;14.83;;;;;;;29.23;54.92;101440.70;1675963;83;21021;-46
2021/07/07 09:44:34;;;;;;;15.35;13.85;;;;;;;29.20;54.93;101442.33;1662194;85;21110;-47
2021/07/07 09:47:04;;;;;;;15.93;14.53;;;;;;;29.13;54.79;101437.96;1682693;84;21014;-48
2021/07/07 09:49:32;;;;;;;15.43;13.95;;;;;;;29.08;55.23;101438.84;1728136;80;20963;-49
2021/07/07 09:52:01;;;;;;;15.23;13.85;;;;;;;29.07;55.76;101434.97;1761327;80;21048;-46
2021/07/07 09:54:28;;;;;;;15.98;14.58;;;;;;;29.08;55.52;101431.32;1712394;83;20994;-46
2021/07/07 09:56:54;;;;;;;15.38;14.00;;;;;;;29.07;55.52;101438.50;1705287;83;21050;-46
2021/07/07 09:59:22;;;;;;;15.95;14.45;;;;;;;29.06;55.40;101441.33;1658576;86;21517;-48
2021/07/07 10:01:48;;;;;;;15.78;14.47;;;;;;;29.06;55.39;101441.33;1698454;83;21006;-47
2021/07/07 10:04:15;;;;;;;16.52;14.85;;;;;;;29.04;55.18;101441.44;1704950;83;21429;-48
2021/07/07 10:06:43;;;;;;;15.15;13.65;;;;;;;29.04;55.05;101440.09;1682908;84;21440;-48
2021/07/07 10:09:10;;;;;;;15.68;14.18;;;;;;;29.05;55.10;101444.98;1699944;83;20966;-46
2021/07/07 10:11:39;;;;;;;16.17;14.50;;;;;;;29.08;55.29;101436.68;1696941;83;21095;-48
2021/07/07 10:14:11;;;;;;;15.47;13.97;;;;;;;29.12;55.25;101436.77;1688091;84;21042;-48
2021/07/07 10:16:37;;;;;;;15.17;13.90;;;;;;;29.19;55.42;101439.27;1672645;85;21070;-49
2021/07/07 10:19:06;;;;;;;14.55;13.13;;;;;;;29.22;55.16;101445.23;1683829;84;21055;-48
2021/07/07 10:21:32;;;;;;;14.95;13.55;;;;;;;29.28;55.10;101442.48;1661759;85;21072;-48
2021/07/07 10:24:01;;;;;;;15.20;13.80;;;;;;;29.33;54.97;101442.42;1653982;85;21515;-48
2021/07/07 10:26:27;;;;;;;13.28;12.15;;;;;;;29.41;54.63;101449.77;1623147;87;21055;-48
2021/07/07 10:28:54;;;;;;;15.15;13.35;;;;;;;29.47;53.90;101443.89;1626642;87;21002;-46
2021/07/07 10:31:22;;;;;;;14.85;13.25;;;;;;;29.49;53.65;101444.59;1603987;87;21518;-49
2021/07/07 10:33:48;;;;;;;15.43;13.83;;;;;;;29.50;53.74;101446.27;1628386;86;20995;-47
2021/07/07 10:36:31;;;;;;;14.68;13.28;;;;;;;29.54;53.27;101451.72;1628036;87;21537;-48
2021/07/07 10:39:02;;;;;;;15.25;13.40;;;;;;;29.56;53.38;101445.72;1626893;87;21169;-47
2021/07/07 10:41:51;;;;;;;15.30;13.90;;;;;;;29.57;53.44;101445.58;1625309;87;21023;-47
2021/07/07 10:44:29;;;;;;;19.07;17.45;;;;;;;29.61;54.11;101449.67;1658040;85;21009;-49
2021/07/07 10:47:10;;;;;;;15.20;13.90;;;;;;;29.69;53.97;101454.36;1678200;84;21510;-46
2021/07/07 10:49:46;;;;;;;14.43;13.18;;;;;;;29.76;54.03;101439.42;1668361;83;21054;-51
2021/07/07 10:52:19;;;;;;;15.05;13.40;;;;;;;29.85;53.64;101441.27;1683101;83;20995;-51
2021/07/07 10:55:00;;;;;;;13.58;12.40;;;;;;;29.92;53.83;101441.56;1683184;83;21038;-45
2021/07/07 10:57:35;;;;;;;;;;;;;;;29.94;53.97;101440.44;1689649;83;21057;-46
2021/07/07 10:59:55;;;;;;;13.62;12.33;;;;;;;30.01;53.15;101444.23;1676382;83;20131;-51
2021/07/07 11:02:24;;;;;;;13.32;12.15;;;;;;;30.04;52.96;101449.34;1688680;83;21467;-49
2021/07/07 11:05:01;;;;;;;15.38;13.95;;;;;;;30.07;53.07;101446.35;1689342;83;21461;-45
2021/07/07 11:07:39;;;;;;;15.60;14.13;;;;;;;30.11;53.05;101450.45;1654269;86;20989;-48
2021/07/07 11:10:11;;;;;;;14.87;13.48;;;;;;;30.16;52.64;101449.54;1602596;88;21029;-46
2021/07/07 11:12:43;;;;;;;13.95;12.40;;;;;;;30.18;52.45;101451.58;1595024;89;21032;-49
2021/07/07 11:15:14;;;;;;;13.62;12.25;;;;;;;30.19;52.57;101447.89;1596382;88;21112;-47
2021/07/07 11:17:47;;;;;;;18.92;14.40;;;;;;;30.23;52.80;101451.16;1597659;89;21005;-50
2021/07/07 11:20:24;;;;;;;14.95;13.48;;;;;;;30.29;53.39;101447.91;1596291;89;21588;-49
2021/07/07 11:23:08;;;;;;;14.80;13.40;;;;;;;30.38;53.16;101447.05;1598292;88;21037;-50